sensor_id;sensor_type;location;lat;lon;timestamp;pressure;altitude;pressure_sealevel;temperature;humidity
70555;BME280;58104;52.744;15.242;2023-01-06T00:02:20;101348.41;;;22.85;35.03
70555;BME280;58104;52.744;15.242;2023-01-06T00:04:46;101347.27;;;22.92;34.87
70555;BME280;58104;52.744;15.242;2023-01-06T00:07:11;101346.75;;;22.93;34.99
70555;BME280;58104;52.744;15.242;2023-01-06T00:09:37;101351.32;;;22.88;34.89
70555;BME280;58104;52.744;15.242;2023-01-06T00:12:02;101353.94;;;23.09;34.66
70555;BME280;58104;52.744;15.242;2023-01-06T00:14:27;101355.58;;;23.29;34.71
70555;BME280;58104;52.744;15.242;2023-01-06T00:16:53;101363.58;;;23.16;34.85
70555;BME280;58104;52.744;15.242;2023-01-06T00:19:18;101365.52;;;23.13;35.01
70555;BME280;58104;52.744;15.242;2023-01-06T00:21:43;101366.13;;;23.21;35.33
70555;BME280;58104;52.744;15.242;2023-01-06T00:24:09;101368.91;;;23.02;35.17
70555;BME280;58104;52.744;15.242;2023-01-06T00:26:34;101367.64;;;23.23;35.36
70555;BME280;58104;52.744;15.242;2023-01-06T00:29:00;101364.62;;;23.16;35.31
70555;BME280;58104;52.744;15.242;2023-01-06T00:31:25;101365.73;;;23.22;35.40
70555;BME280;58104;52.744;15.242;2023-01-06T00:33:50;101359.34;;;23.17;35.54
70555;BME280;58104;52.744;15.242;2023-01-06T00:36:16;101359.38;;;23.21;35.65
70555;BME280;58104;52.744;15.242;2023-01-06T00:38:41;101362.24;;;23.16;35.70
70555;BME280;58104;52.744;15.242;2023-01-06T00:41:08;101367.78;;;23.19;35.66
70555;BME280;58104;52.744;15.242;2023-01-06T00:43:32;101374.79;;;23.16;35.88
70555;BME280;58104;52.744;15.242;2023-01-06T00:46:00;101374.51;;;23.12;35.98
70555;BME280;58104;52.744;15.242;2023-01-06T00:48:23;101378.23;;;23.24;36.18
70555;BME280;58104;52.744;15.242;2023-01-06T00:50:48;101382.59;;;23.21;36.05
70555;BME280;58104;52.744;15.242;2023-01-06T00:53:13;101377.71;;;23.22;36.14
70555;BME280;58104;52.744;15.242;2023-01-06T00:55:39;101380.65;;;23.22;36.36
70555;BME280;58104;52.744;15.242;2023-01-06T00:58:04;101376.41;;;23.19;36.67
70555;BME280;58104;52.744;15.242;2023-01-06T01:00:30;101373.41;;;23.36;36.79
70555;BME280;58104;52.744;15.242;2023-01-06T01:02:55;101370.07;;;23.33;36.80
70555;BME280;58104;52.744;15.242;2023-01-06T01:05:20;101371.55;;;23.41;36.75
70555;BME280;58104;52.744;15.242;2023-01-06T01:07:46;101372.86;;;23.28;36.87
70555;BME280;58104;52.744;15.242;2023-01-06T01:10:11;101374.84;;;23.34;37.17
70555;BME280;58104;52.744;15.242;2023-01-06T01:12:36;101376.23;;;23.31;37.16
70555;BME280;58104;52.744;15.242;2023-01-06T01:15:02;101374.90;;;23.38;37.37
70555;BME280;58104;52.744;15.242;2023-01-06T01:17:30;101373.77;;;23.30;37.26
70555;BME280;58104;52.744;15.242;2023-01-06T01:19:54;101375.02;;;23.34;37.41
70555;BME280;58104;52.744;15.242;2023-01-06T01:22:19;101377.32;;;23.27;37.48
70555;BME280;58104;52.744;15.242;2023-01-06T01:24:43;101384.07;;;23.33;37.48
70555;BME280;58104;52.744;15.242;2023-01-06T01:27:09;101388.30;;;23.29;37.67
70555;BME280;58104;52.744;15.242;2023-01-06T01:29:34;101395.76;;;23.35;37.63
70555;BME280;58104;52.744;15.242;2023-01-06T01:32:00;101395.43;;;23.39;37.65
70555;BME280;58104;52.744;15.242;2023-01-06T01:34:25;101399.04;;;23.35;37.75
70555;BME280;58104;52.744;15.242;2023-01-06T01:36:52;101400.18;;;23.38;37.81
70555;BME280;58104;52.744;15.242;2023-01-06T01:39:18;101402.11;;;23.44;37.83
70555;BME280;58104;52.744;15.242;2023-01-06T01:41:41;101404.28;;;23.49;37.99
70555;BME280;58104;52.744;15.242;2023-01-06T01:46:36;101400.05;;;23.48;38.37
70555;BME280;58104;52.744;15.242;2023-01-06T01:49:00;101398.91;;;23.52;38.40
70555;BME280;58104;52.744;15.242;2023-01-06T01:51:27;101404.65;;;23.45;38.54
70555;BME280;58104;52.744;15.242;2023-01-06T01:53:51;101405.52;;;23.59;38.57
70555;BME280;58104;52.744;15.242;2023-01-06T01:56:17;101403.32;;;23.51;38.57
70555;BME280;58104;52.744;15.242;2023-01-06T01:58:42;101401.28;;;23.55;38.75
70555;BME280;58104;52.744;15.242;2023-01-06T02:01:05;101400.81;;;23.57;38.88
70555;BME280;58104;52.744;15.242;2023-01-06T02:03:30;101396.73;;;23.44;38.82
70555;BME280;58104;52.744;15.242;2023-01-06T02:05:58;101394.31;;;23.49;39.01
70555;BME280;58104;52.744;15.242;2023-01-06T02:08:25;101392.80;;;23.51;39.00
70555;BME280;58104;52.744;15.242;2023-01-06T02:10:46;101393.11;;;23.54;39.17
70555;BME280;58104;52.744;15.242;2023-01-06T02:13:11;101392.67;;;23.47;39.23
70555;BME280;58104;52.744;15.242;2023-01-06T02:15:37;101388.06;;;23.56;39.36
70555;BME280;58104;52.744;15.242;2023-01-06T02:20:37;101377.56;;;23.64;39.30
70555;BME280;58104;52.744;15.242;2023-01-06T02:32:43;101362.59;;;23.57;39.66
70555;BME280;58104;52.744;15.242;2023-01-06T02:35:08;101364.62;;;23.58;39.63
70555;BME280;58104;52.744;15.242;2023-01-06T02:37:36;101362.27;;;23.62;39.98
70555;BME280;58104;52.744;15.242;2023-01-06T02:40:01;101357.06;;;23.59;40.18
70555;BME280;58104;52.744;15.242;2023-01-06T02:42:21;101352.07;;;23.54;40.07
70555;BME280;58104;52.744;15.242;2023-01-06T02:44:47;101348.82;;;23.57;40.12
70555;BME280;58104;52.744;15.242;2023-01-06T02:47:12;101343.19;;;23.66;40.02
70555;BME280;58104;52.744;15.242;2023-01-06T02:49:40;101344.02;;;23.63;40.13
70555;BME280;58104;52.744;15.242;2023-01-06T02:52:02;101348.04;;;23.69;40.34
70555;BME280;58104;52.744;15.242;2023-01-06T02:54:29;101353.88;;;23.67;40.19
70555;BME280;58104;52.744;15.242;2023-01-06T02:56:50;101356.54;;;23.64;40.13
70555;BME280;58104;52.744;15.242;2023-01-06T02:59:18;101357.59;;;23.73;40.18
70555;BME280;58104;52.744;15.242;2023-01-06T03:01:41;101353.76;;;23.64;40.34
70555;BME280;58104;52.744;15.242;2023-01-06T03:04:07;101347.61;;;23.58;40.30
70555;BME280;58104;52.744;15.242;2023-01-06T03:06:31;101346.71;;;23.67;40.25
70555;BME280;58104;52.744;15.242;2023-01-06T03:08:56;101348.93;;;23.99;39.93
70555;BME280;58104;52.744;15.242;2023-01-06T03:11:21;101346.70;;;23.88;40.10
70555;BME280;58104;52.744;15.242;2023-01-06T03:13:48;101340.11;;;23.73;40.44
70555;BME280;58104;52.744;15.242;2023-01-06T03:16:12;101334.33;;;23.83;40.40
70555;BME280;58104;52.744;15.242;2023-01-06T03:18:37;101335.98;;;23.73;40.60
70555;BME280;58104;52.744;15.242;2023-01-06T03:21:05;101331.90;;;23.80;40.53
70555;BME280;58104;52.744;15.242;2023-01-06T03:23:27;101322.74;;;23.72;40.63
70555;BME280;58104;52.744;15.242;2023-01-06T03:25:53;101324.90;;;23.66;40.76
70555;BME280;58104;52.744;15.242;2023-01-06T03:28:18;101327.93;;;23.72;40.73
70555;BME280;58104;52.744;15.242;2023-01-06T03:30:54;101331.72;;;23.75;40.75
70555;BME280;58104;52.744;15.242;2023-01-06T03:33:14;101333.83;;;23.78;40.63
70555;BME280;58104;52.744;15.242;2023-01-06T03:35:43;101327.97;;;23.77;40.68
70555;BME280;58104;52.744;15.242;2023-01-06T03:38:06;101327.19;;;23.79;40.77
70555;BME280;58104;52.744;15.242;2023-01-06T03:40:30;101329.45;;;23.81;40.80
70555;BME280;58104;52.744;15.242;2023-01-06T03:42:53;101333.76;;;23.80;40.87
70555;BME280;58104;52.744;15.242;2023-01-06T03:45:31;101341.26;;;23.77;40.84
70555;BME280;58104;52.744;15.242;2023-01-06T03:47:48;101347.69;;;23.76;40.96
70555;BME280;58104;52.744;15.242;2023-01-06T03:50:14;101344.44;;;23.85;40.95
70555;BME280;58104;52.744;15.242;2023-01-06T03:52:36;101337.38;;;23.74;41.11
70555;BME280;58104;52.744;15.242;2023-01-06T03:55:02;101341.65;;;23.72;41.16
70555;BME280;58104;52.744;15.242;2023-01-06T03:57:25;101345.71;;;23.74;41.10
70555;BME280;58104;52.744;15.242;2023-01-06T03:59:52;101340.68;;;23.75;41.02
70555;BME280;58104;52.744;15.242;2023-01-06T04:02:15;101342.24;;;23.75;41.08
70555;BME280;58104;52.744;15.242;2023-01-06T04:04:39;101341.71;;;23.70;41.28
70555;BME280;58104;52.744;15.242;2023-01-06T04:07:04;101336.21;;;23.77;41.22
70555;BME280;58104;52.744;15.242;2023-01-06T04:09:30;101330.72;;;23.75;41.19
70555;BME280;58104;52.744;15.242;2023-01-06T04:11:55;101333.55;;;23.85;41.14
70555;BME280;58104;52.744;15.242;2023-01-06T04:14:20;101333.85;;;23.79;41.12
70555;BME280;58104;52.744;15.242;2023-01-06T04:16:46;101335.20;;;23.81;41.24
70555;BME280;58104;52.744;15.242;2023-01-06T04:19:11;101328.80;;;23.77;41.18
70555;BME280;58104;52.744;15.242;2023-01-06T04:21:37;101325.12;;;23.74;41.26
70555;BME280;58104;52.744;15.242;2023-01-06T04:24:02;101322.48;;;23.80;41.23
70555;BME280;58104;52.744;15.242;2023-01-06T04:26:27;101327.69;;;23.79;41.32
70555;BME280;58104;52.744;15.242;2023-01-06T04:28:53;101322.56;;;23.91;41.23
70555;BME280;58104;52.744;15.242;2023-01-06T04:31:19;101319.55;;;24.05;41.17
70555;BME280;58104;52.744;15.242;2023-01-06T04:33:43;101315.52;;;23.90;41.42
70555;BME280;58104;52.744;15.242;2023-01-06T04:36:09;101317.02;;;23.85;41.49
70555;BME280;58104;52.744;15.242;2023-01-06T04:38:35;101324.20;;;23.85;41.49
70555;BME280;58104;52.744;15.242;2023-01-06T04:41:00;101324.54;;;23.80;41.59
70555;BME280;58104;52.744;15.242;2023-01-06T04:43:25;101322.66;;;23.76;41.33
70555;BME280;58104;52.744;15.242;2023-01-06T04:45:50;101321.97;;;23.69;41.40
70555;BME280;58104;52.744;15.242;2023-01-06T04:48:16;101318.05;;;23.70;41.39
70555;BME280;58104;52.744;15.242;2023-01-06T04:50:41;101315.50;;;23.74;41.42
70555;BME280;58104;52.744;15.242;2023-01-06T04:53:07;101309.61;;;23.73;41.54
70555;BME280;58104;52.744;15.242;2023-01-06T04:55:32;101310.32;;;23.84;41.60
70555;BME280;58104;52.744;15.242;2023-01-06T04:57:57;101311.85;;;23.92;41.35
70555;BME280;58104;52.744;15.242;2023-01-06T05:00:22;101311.02;;;23.89;41.32
70555;BME280;58104;52.744;15.242;2023-01-06T05:02:48;101313.33;;;23.84;41.37
70555;BME280;58104;52.744;15.242;2023-01-06T05:05:14;101307.35;;;23.85;41.22
70555;BME280;58104;52.744;15.242;2023-01-06T05:07:38;101305.24;;;23.79;41.31
70555;BME280;58104;52.744;15.242;2023-01-06T05:10:06;101304.17;;;23.95;41.02
70555;BME280;58104;52.744;15.242;2023-01-06T05:12:30;101300.64;;;23.91;41.11
70555;BME280;58104;52.744;15.242;2023-01-06T05:14:54;101293.16;;;23.89;41.46
70555;BME280;58104;52.744;15.242;2023-01-06T05:17:20;101285.61;;;23.91;41.39
70555;BME280;58104;52.744;15.242;2023-01-06T05:19:45;101283.15;;;23.92;41.66
70555;BME280;58104;52.744;15.242;2023-01-06T05:22:11;101285.68;;;23.97;41.41
70555;BME280;58104;52.744;15.242;2023-01-06T05:24:36;101291.90;;;23.90;41.56
70555;BME280;58104;52.744;15.242;2023-01-06T05:27:01;101298.38;;;23.84;41.73
70555;BME280;58104;52.744;15.242;2023-01-06T05:29:27;101303.49;;;23.92;41.60
70555;BME280;58104;52.744;15.242;2023-01-06T05:31:53;101306.21;;;23.86;41.83
70555;BME280;58104;52.744;15.242;2023-01-06T05:34:17;101298.36;;;23.80;41.99
70555;BME280;58104;52.744;15.242;2023-01-06T05:36:43;101295.86;;;23.83;41.96
70555;BME280;58104;52.744;15.242;2023-01-06T05:39:08;101291.04;;;23.96;41.70
70555;BME280;58104;52.744;15.242;2023-01-06T05:41:34;101291.63;;;23.93;41.86
70555;BME280;58104;52.744;15.242;2023-01-06T05:43:59;101296.68;;;23.88;41.93
70555;BME280;58104;52.744;15.242;2023-01-06T05:46:24;101297.38;;;23.72;41.99
70555;BME280;58104;52.744;15.242;2023-01-06T05:48:50;101294.79;;;23.82;42.09
70555;BME280;58104;52.744;15.242;2023-01-06T05:51:16;101294.47;;;23.86;41.97
70555;BME280;58104;52.744;15.242;2023-01-06T05:53:43;101291.66;;;23.82;42.09
70555;BME280;58104;52.744;15.242;2023-01-06T05:56:08;101288.12;;;24.01;40.07
70555;BME280;58104;52.744;15.242;2023-01-06T05:58:32;101292.11;;;23.98;35.12
70555;BME280;58104;52.744;15.242;2023-01-06T06:00:57;101294.52;;;23.59;34.93
70555;BME280;58104;52.744;15.242;2023-01-06T06:03:22;101291.81;;;23.71;35.21
70555;BME280;58104;52.744;15.242;2023-01-06T06:05:48;101288.08;;;23.46;33.69
70555;BME280;58104;52.744;15.242;2023-01-06T06:08:13;101291.16;;;23.69;36.02
70555;BME280;58104;52.744;15.242;2023-01-06T06:10:39;101287.97;;;23.59;36.87
70555;BME280;58104;52.744;15.242;2023-01-06T06:13:04;101280.34;;;23.62;36.87
70555;BME280;58104;52.744;15.242;2023-01-06T06:15:30;101280.73;;;23.71;37.20
70555;BME280;58104;52.744;15.242;2023-01-06T06:17:55;101285.80;;;23.66;37.41
70555;BME280;58104;52.744;15.242;2023-01-06T06:20:20;101283.21;;;23.69;37.58
70555;BME280;58104;52.744;15.242;2023-01-06T06:22:46;101282.49;;;23.70;37.78
70555;BME280;58104;52.744;15.242;2023-01-06T06:25:11;101285.59;;;23.66;38.00
70555;BME280;58104;52.744;15.242;2023-01-06T06:27:37;101283.47;;;23.69;38.08
70555;BME280;58104;52.744;15.242;2023-01-06T06:30:03;101282.45;;;23.78;38.13
70555;BME280;58104;52.744;15.242;2023-01-06T06:32:29;101278.83;;;23.68;38.29
70555;BME280;58104;52.744;15.242;2023-01-06T06:34:53;101274.13;;;23.64;38.36
70555;BME280;58104;52.744;15.242;2023-01-06T06:37:19;101272.93;;;23.74;38.59
70555;BME280;58104;52.744;15.242;2023-01-06T06:39:44;101271.32;;;23.78;38.57
70555;BME280;58104;52.744;15.242;2023-01-06T06:42:09;101269.01;;;23.79;38.66
70555;BME280;58104;52.744;15.242;2023-01-06T06:44:34;101265.98;;;23.86;39.00
70555;BME280;58104;52.744;15.242;2023-01-06T06:46:59;101263.39;;;23.82;38.99
70555;BME280;58104;52.744;15.242;2023-01-06T06:49:25;101259.48;;;23.67;39.30
70555;BME280;58104;52.744;15.242;2023-01-06T06:51:50;101259.00;;;23.67;39.41
70555;BME280;58104;52.744;15.242;2023-01-06T06:54:16;101254.92;;;23.73;39.54
70555;BME280;58104;52.744;15.242;2023-01-06T06:56:41;101251.83;;;23.67;39.75
70555;BME280;58104;52.744;15.242;2023-01-06T06:59:06;101240.48;;;23.65;39.64
70555;BME280;58104;52.744;15.242;2023-01-06T07:01:32;101232.17;;;23.62;39.89
70555;BME280;58104;52.744;15.242;2023-01-06T07:03:57;101229.68;;;23.60;39.75
70555;BME280;58104;52.744;15.242;2023-01-06T07:06:24;101220.46;;;23.72;39.65
70555;BME280;58104;52.744;15.242;2023-01-06T07:08:48;101215.33;;;23.67;39.65
70555;BME280;58104;52.744;15.242;2023-01-06T07:11:13;101213.33;;;23.62;39.72
70555;BME280;58104;52.744;15.242;2023-01-06T07:13:39;101211.17;;;23.69;39.86
70555;BME280;58104;52.744;15.242;2023-01-06T07:16:05;101212.70;;;23.62;39.80
70555;BME280;58104;52.744;15.242;2023-01-06T07:18:30;101222.41;;;23.67;40.05
70555;BME280;58104;52.744;15.242;2023-01-06T07:20:55;101223.06;;;23.66;39.87
70555;BME280;58104;52.744;15.242;2023-01-06T07:23:21;101228.41;;;23.66;40.02
70555;BME280;58104;52.744;15.242;2023-01-06T07:25:50;101227.58;;;23.72;40.29
70555;BME280;58104;52.744;15.242;2023-01-06T07:28:11;101232.84;;;23.76;40.48
70555;BME280;58104;52.744;15.242;2023-01-06T07:30:37;101230.49;;;23.75;40.65
70555;BME280;58104;52.744;15.242;2023-01-06T07:33:02;101231.41;;;23.96;40.42
70555;BME280;58104;52.744;15.242;2023-01-06T07:35:27;101223.53;;;23.76;40.75
70555;BME280;58104;52.744;15.242;2023-01-06T07:37:52;101217.59;;;23.75;40.62
70555;BME280;58104;52.744;15.242;2023-01-06T07:40:18;101213.09;;;23.63;40.70
70555;BME280;58104;52.744;15.242;2023-01-06T07:42:43;101215.25;;;23.73;40.68
70555;BME280;58104;52.744;15.242;2023-01-06T07:45:10;101211.96;;;23.65;40.75
70555;BME280;58104;52.744;15.242;2023-01-06T07:47:34;101208.33;;;23.78;40.72
70555;BME280;58104;52.744;15.242;2023-01-06T07:50:00;101201.29;;;23.76;40.72
70555;BME280;58104;52.744;15.242;2023-01-06T07:52:25;101195.14;;;23.74;40.95
70555;BME280;58104;52.744;15.242;2023-01-06T07:54:50;101194.99;;;23.94;40.72
70555;BME280;58104;52.744;15.242;2023-01-06T07:57:15;101184.83;;;23.99;40.84
70555;BME280;58104;52.744;15.242;2023-01-06T07:59:41;101180.64;;;24.07;40.90
70555;BME280;58104;52.744;15.242;2023-01-06T08:02:09;101184.32;;;24.17;40.74
70555;BME280;58104;52.744;15.242;2023-01-06T08:04:33;101199.26;;;24.10;40.73
70555;BME280;58104;52.744;15.242;2023-01-06T08:06:57;101197.98;;;24.12;40.88
70555;BME280;58104;52.744;15.242;2023-01-06T08:09:22;101190.94;;;24.12;40.88
70555;BME280;58104;52.744;15.242;2023-01-06T08:11:48;101196.44;;;24.13;40.85
70555;BME280;58104;52.744;15.242;2023-01-06T08:14:13;101191.73;;;23.91;41.42
70555;BME280;58104;52.744;15.242;2023-01-06T08:16:39;101192.60;;;23.79;41.31
70555;BME280;58104;52.744;15.242;2023-01-06T08:19:04;101189.28;;;23.76;41.64
70555;BME280;58104;52.744;15.242;2023-01-06T08:21:31;101176.42;;;23.78;41.40
70555;BME280;58104;52.744;15.242;2023-01-06T08:23:55;101162.53;;;23.76;41.56
70555;BME280;58104;52.744;15.242;2023-01-06T08:26:20;101167.66;;;23.79;41.65
70555;BME280;58104;52.744;15.242;2023-01-06T08:28:46;101169.83;;;23.80;41.65
70555;BME280;58104;52.744;15.242;2023-01-06T08:31:13;101174.60;;;23.76;41.51
70555;BME280;58104;52.744;15.242;2023-01-06T08:33:37;101171.00;;;23.78;41.55
70555;BME280;58104;52.744;15.242;2023-01-06T08:36:04;101157.24;;;23.79;41.74
70555;BME280;58104;52.744;15.242;2023-01-06T08:38:29;101156.77;;;23.90;41.61
70555;BME280;58104;52.744;15.242;2023-01-06T08:40:53;101151.06;;;23.87;41.67
70555;BME280;58104;52.744;15.242;2023-01-06T08:43:18;101157.70;;;23.92;41.70
70555;BME280;58104;52.744;15.242;2023-01-06T08:45:43;101155.98;;;24.00;41.69
70555;BME280;58104;52.744;15.242;2023-01-06T08:48:14;101157.93;;;23.89;42.00
70555;BME280;58104;52.744;15.242;2023-01-06T08:50:36;101166.05;;;23.93;41.98
70555;BME280;58104;52.744;15.242;2023-01-06T08:53:00;101170.34;;;23.88;42.22
70555;BME280;58104;52.744;15.242;2023-01-06T08:55:25;101175.20;;;24.06;42.20
70555;BME280;58104;52.744;15.242;2023-01-06T08:57:50;101183.56;;;24.07;42.14
70555;BME280;58104;52.744;15.242;2023-01-06T09:00:18;101186.63;;;23.96;41.45
70555;BME280;58104;52.744;15.242;2023-01-06T09:02:42;101179.94;;;23.88;42.43
70555;BME280;58104;52.744;15.242;2023-01-06T09:05:07;101175.58;;;23.77;42.15
70555;BME280;58104;52.744;15.242;2023-01-06T09:07:34;101155.46;;;23.74;41.65
70555;BME280;58104;52.744;15.242;2023-01-06T09:09:57;101148.79;;;23.80;37.58
70555;BME280;58104;52.744;15.242;2023-01-06T09:12:23;101140.76;;;23.41;36.65
70555;BME280;58104;52.744;15.242;2023-01-06T09:14:48;101134.65;;;23.26;35.73
70555;BME280;58104;52.744;15.242;2023-01-06T09:17:13;101134.18;;;23.26;35.78
70555;BME280;58104;52.744;15.242;2023-01-06T09:19:39;101131.97;;;23.08;35.73
70555;BME280;58104;52.744;15.242;2023-01-06T09:22:05;101131.71;;;23.06;35.06
70555;BME280;58104;52.744;15.242;2023-01-06T09:24:30;101134.95;;;22.81;32.77
70555;BME280;58104;52.744;15.242;2023-01-06T09:26:55;101131.29;;;22.66;31.52
70555;BME280;58104;52.744;15.242;2023-01-06T09:29:20;101127.04;;;22.53;30.47
70555;BME280;58104;52.744;15.242;2023-01-06T09:31:46;101129.80;;;22.16;30.28
70555;BME280;58104;52.744;15.242;2023-01-06T09:34:11;101123.33;;;21.91;30.27
70555;BME280;58104;52.744;15.242;2023-01-06T09:36:37;101104.60;;;21.63;29.82
70555;BME280;58104;52.744;15.242;2023-01-06T09:39:02;101104.33;;;21.52;30.08
70555;BME280;58104;52.744;15.242;2023-01-06T09:43:56;101089.99;;;21.40;30.34
70555;BME280;58104;52.744;15.242;2023-01-06T09:46:21;101072.18;;;21.35;30.00
70555;BME280;58104;52.744;15.242;2023-01-06T09:48:50;101066.79;;;21.21;29.73
70555;BME280;58104;52.744;15.242;2023-01-06T09:51:14;101057.84;;;20.76;30.24
70555;BME280;58104;52.744;15.242;2023-01-06T09:53:38;101053.57;;;20.70;30.75
70555;BME280;58104;52.744;15.242;2023-01-06T09:56:01;101052.40;;;20.89;30.54
70555;BME280;58104;52.744;15.242;2023-01-06T09:58:27;101048.24;;;20.88;30.80
70555;BME280;58104;52.744;15.242;2023-01-06T10:00:52;101043.91;;;20.98;30.61
70555;BME280;58104;52.744;15.242;2023-01-06T10:03:17;101041.53;;;21.17;30.30
70555;BME280;58104;52.744;15.242;2023-01-06T10:05:51;101042.48;;;21.16;30.41
70555;BME280;58104;52.744;15.242;2023-01-06T10:08:13;101043.64;;;21.13;30.41
70555;BME280;58104;52.744;15.242;2023-01-06T10:10:38;101030.37;;;21.03;30.38
70555;BME280;58104;52.744;15.242;2023-01-06T10:13:06;101016.55;;;20.98;30.44
70555;BME280;58104;52.744;15.242;2023-01-06T10:15:28;101015.44;;;21.00;30.28
70555;BME280;58104;52.744;15.242;2023-01-06T10:17:56;101008.42;;;21.04;30.06
70555;BME280;58104;52.744;15.242;2023-01-06T10:20:27;101010.89;;;21.01;30.05
70555;BME280;58104;52.744;15.242;2023-01-06T10:22:44;101001.89;;;20.93;30.07
70555;BME280;58104;52.744;15.242;2023-01-06T10:25:09;100998.61;;;20.96;30.16
70555;BME280;58104;52.744;15.242;2023-01-06T10:27:35;100995.69;;;20.87;30.11
70555;BME280;58104;52.744;15.242;2023-01-06T10:29:55;100985.79;;;20.97;30.01
70555;BME280;58104;52.744;15.242;2023-01-06T10:32:20;100983.15;;;20.96;30.15
70555;BME280;58104;52.744;15.242;2023-01-06T10:34:48;100983.61;;;20.92;30.01
70555;BME280;58104;52.744;15.242;2023-01-06T10:37:16;100982.20;;;20.91;30.21
70555;BME280;58104;52.744;15.242;2023-01-06T10:39:37;100979.44;;;20.78;30.22
70555;BME280;58104;52.744;15.242;2023-01-06T10:42:10;100973.97;;;20.75;30.04
70555;BME280;58104;52.744;15.242;2023-01-06T10:44:26;100975.71;;;20.70;30.16
70555;BME280;58104;52.744;15.242;2023-01-06T10:46:52;100972.98;;;20.66;30.17
70555;BME280;58104;52.744;15.242;2023-01-06T10:49:18;100960.92;;;20.52;30.21
70555;BME280;58104;52.744;15.242;2023-01-06T10:51:45;100954.59;;;20.51;30.47
70555;BME280;58104;52.744;15.242;2023-01-06T10:54:11;100949.25;;;20.57;30.41
70555;BME280;58104;52.744;15.242;2023-01-06T10:56:34;100929.81;;;20.61;30.33
70555;BME280;58104;52.744;15.242;2023-01-06T10:59:05;100923.16;;;20.49;30.43
70555;BME280;58104;52.744;15.242;2023-01-06T11:01:25;100921.36;;;20.61;30.45
70555;BME280;58104;52.744;15.242;2023-01-06T11:06:20;100914.26;;;20.56;30.50
70555;BME280;58104;52.744;15.242;2023-01-06T11:08:41;100905.47;;;20.48;30.55
70555;BME280;58104;52.744;15.242;2023-01-06T11:11:11;100902.77;;;20.35;30.56
70555;BME280;58104;52.744;15.242;2023-01-06T11:13:34;100900.82;;;20.41;30.66
70555;BME280;58104;52.744;15.242;2023-01-06T11:15:58;100893.89;;;20.48;30.37
70555;BME280;58104;52.744;15.242;2023-01-06T11:18:25;100893.96;;;20.44;30.37
70555;BME280;58104;52.744;15.242;2023-01-06T11:23:19;100880.81;;;20.41;30.39
70555;BME280;58104;52.744;15.242;2023-01-06T11:25:37;100880.68;;;20.36;30.49
70555;BME280;58104;52.744;15.242;2023-01-06T11:28:11;100873.23;;;20.30;30.48
70555;BME280;58104;52.744;15.242;2023-01-06T11:30:28;100867.14;;;20.36;30.41
70555;BME280;58104;52.744;15.242;2023-01-06T11:32:53;100860.20;;;20.30;30.47
70555;BME280;58104;52.744;15.242;2023-01-06T11:35:20;100865.63;;;20.32;30.51
70555;BME280;58104;52.744;15.242;2023-01-06T11:37:44;100862.12;;;20.22;30.71
70555;BME280;58104;52.744;15.242;2023-01-06T11:40:18;100854.40;;;20.28;30.50
70555;BME280;58104;52.744;15.242;2023-01-06T11:42:41;100857.16;;;20.29;30.73
70555;BME280;58104;52.744;15.242;2023-01-06T11:45:00;100857.65;;;20.36;30.55
70555;BME280;58104;52.744;15.242;2023-01-06T11:47:26;100864.60;;;20.33;30.61
70555;BME280;58104;52.744;15.242;2023-01-06T11:49:52;100855.04;;;20.42;30.38
70555;BME280;58104;52.744;15.242;2023-01-06T11:52:21;100842.19;;;20.27;30.42
70555;BME280;58104;52.744;15.242;2023-01-06T11:54:41;100839.06;;;20.33;30.54
70555;BME280;58104;52.744;15.242;2023-01-06T11:57:16;100839.16;;;20.22;30.69
70555;BME280;58104;52.744;15.242;2023-01-06T11:59:44;100833.35;;;20.28;30.51
70555;BME280;58104;52.744;15.242;2023-01-06T12:01:58;100827.00;;;20.26;30.71
70555;BME280;58104;52.744;15.242;2023-01-06T12:04:28;100819.02;;;20.28;30.63
70555;BME280;58104;52.744;15.242;2023-01-06T12:06:51;100823.21;;;20.16;30.68
70555;BME280;58104;52.744;15.242;2023-01-06T12:09:18;100830.76;;;20.24;30.94
70555;BME280;58104;52.744;15.242;2023-01-06T12:11:44;100828.82;;;20.14;31.08
70555;BME280;58104;52.744;15.242;2023-01-06T12:14:04;100824.68;;;20.06;31.14
70555;BME280;58104;52.744;15.242;2023-01-06T12:16:34;100826.66;;;20.12;31.04
70555;BME280;58104;52.744;15.242;2023-01-06T12:18:55;100813.11;;;20.21;30.84
70555;BME280;58104;52.744;15.242;2023-01-06T12:21:25;100811.14;;;20.22;30.78
70555;BME280;58104;52.744;15.242;2023-01-06T12:23:46;100811.97;;;20.16;31.02
70555;BME280;58104;52.744;15.242;2023-01-06T12:26:15;100811.28;;;20.18;31.04
70555;BME280;58104;52.744;15.242;2023-01-06T12:28:39;100815.61;;;20.23;31.02
70555;BME280;58104;52.744;15.242;2023-01-06T12:31:05;100809.35;;;20.15;31.08
70555;BME280;58104;52.744;15.242;2023-01-06T12:33:31;100808.69;;;20.10;31.26
70555;BME280;58104;52.744;15.242;2023-01-06T12:35:55;100807.31;;;20.19;31.25
70555;BME280;58104;52.744;15.242;2023-01-06T12:38:28;100801.10;;;20.23;30.96
70555;BME280;58104;52.744;15.242;2023-01-06T12:40:49;100797.73;;;20.32;30.79
70555;BME280;58104;52.744;15.242;2023-01-06T12:43:15;100793.81;;;20.17;31.13
70555;BME280;58104;52.744;15.242;2023-01-06T12:45:41;100784.30;;;20.03;31.47
70555;BME280;58104;52.744;15.242;2023-01-06T12:48:04;100775.78;;;20.01;31.48
70555;BME280;58104;52.744;15.242;2023-01-06T12:50:32;100775.50;;;19.99;31.49
70555;BME280;58104;52.744;15.242;2023-01-06T12:52:53;100767.23;;;19.89;31.67